DNA421 LROP-LTFM
Flight info
| Callsign | DNA421 |
|---|---|
| Flight time | 0h 48m |
| Altitude | 37000 |
| Route | IDARU DCT NONQE DCT MAXOV DCT MATEL L620 RIXEN |
| Aircraft | A320/M-SDE3FGHIRWY/LB1 |
Departure
| Time | 2026-05-01 09:34 |
|---|---|
| Airport | Bucharest Henri Coandă International Airport (LROP) |
Arrival
| Time | 2026-05-01 10:23 |
|---|---|
| Airport | İstanbul Airport (LTFM) |
| Time | Latitude | Longitude | Altitude | Speed | Heading |
|---|---|---|---|---|---|
| 2026-05-01 09:13 | 44.57021 | 26.08134 | 323 ft | 0 kts | 354° |
| 2026-05-01 09:25 | 44.57005 | 26.08136 | 321 ft | 2 kts | 354° |
| 2026-05-01 09:25 | 44.56973 | 26.08140 | 321 ft | 2 kts | 354° |
| 2026-05-01 09:26 | 44.56957 | 26.08143 | 322 ft | 2 kts | 2° |
| 2026-05-01 09:26 | 44.56936 | 26.08125 | 321 ft | 0 kts | 84° |
| 2026-05-01 09:28 | 44.56938 | 26.08146 | 320 ft | 5 kts | 84° |
| 2026-05-01 09:29 | 44.56947 | 26.08276 | 323 ft | 11 kts | 84° |
| 2026-05-01 09:29 | 44.56930 | 26.08391 | 323 ft | 14 kts | 139° |
| 2026-05-01 09:30 | 44.57047 | 26.08532 | 323 ft | 19 kts | 355° |
| 2026-05-01 09:30 | 44.57141 | 26.08519 | 323 ft | 21 kts | 353° |
| 2026-05-01 09:30 | 44.57464 | 26.08472 | 323 ft | 22 kts | 353° |
| 2026-05-01 09:31 | 44.57562 | 26.08456 | 323 ft | 0 kts | 354° |
| 2026-05-01 09:31 | 44.57583 | 26.08453 | 323 ft | 6 kts | 354° |
| 2026-05-01 09:32 | 44.57638 | 26.08453 | 323 ft | 9 kts | 11° |
| 2026-05-01 09:32 | 44.57668 | 26.08519 | 324 ft | 0 kts | 83° |
| 2026-05-01 09:33 | 44.57707 | 26.08996 | 322 ft | 87 kts | 84° |
| 2026-05-01 09:34 | 44.57796 | 26.10174 | 323 ft | 147 kts | 84° |
| 2026-05-01 09:34 | 44.57863 | 26.11714 | 761 ft | 154 kts | 86° |
| 2026-05-01 09:34 | 44.57937 | 26.14583 | 2073 ft | 157 kts | 82° |
| 2026-05-01 09:35 | 44.58128 | 26.16182 | 2502 ft | 172 kts | 77° |
| 2026-05-01 09:35 | 44.58614 | 26.19233 | 4107 ft | 158 kts | 64° |
| 2026-05-01 09:35 | 44.59068 | 26.20704 | 4591 ft | 168 kts | 62° |
| 2026-05-01 09:36 | 44.59476 | 26.22332 | 5060 ft | 190 kts | 75° |
| 2026-05-01 09:36 | 44.59658 | 26.24288 | 5409 ft | 216 kts | 90° |
| 2026-05-01 09:36 | 44.59126 | 26.26371 | 5811 ft | 245 kts | 128° |
| 2026-05-01 09:36 | 44.57790 | 26.28028 | 6356 ft | 269 kts | 140° |
| 2026-05-01 09:37 | 44.56265 | 26.29649 | 7183 ft | 279 kts | 142° |
| 2026-05-01 09:37 | 44.53105 | 26.32885 | 9008 ft | 287 kts | 142° |
| 2026-05-01 09:37 | 44.51478 | 26.34551 | 9940 ft | 291 kts | 142° |
| 2026-05-01 09:38 | 44.48034 | 26.38116 | 10885 ft | 328 kts | 141° |
| 2026-05-01 09:38 | 44.46142 | 26.40091 | 11089 ft | 351 kts | 141° |
| 2026-05-01 09:38 | 44.44144 | 26.42181 | 11552 ft | 364 kts | 141° |
| 2026-05-01 09:39 | 44.40052 | 26.46448 | 12990 ft | 373 kts | 141° |
| 2026-05-01 09:39 | 44.37959 | 26.48628 | 13717 ft | 377 kts | 141° |
| 2026-05-01 09:39 | 44.35841 | 26.50831 | 14403 ft | 381 kts | 141° |
| 2026-05-01 09:40 | 44.33703 | 26.53054 | 15007 ft | 386 kts | 141° |
| 2026-05-01 09:40 | 44.29350 | 26.57576 | 16194 ft | 394 kts | 141° |
| 2026-05-01 09:40 | 44.27137 | 26.59874 | 16805 ft | 398 kts | 141° |
| 2026-05-01 09:41 | 44.24896 | 26.62198 | 17416 ft | 403 kts | 141° |
| 2026-05-01 09:41 | 44.20344 | 26.66903 | 18661 ft | 412 kts | 142° |
| 2026-05-01 09:41 | 44.17992 | 26.69229 | 19229 ft | 417 kts | 143° |
| 2026-05-01 09:42 | 44.15609 | 26.71554 | 19801 ft | 420 kts | 143° |
| 2026-05-01 09:42 | 44.13200 | 26.73897 | 20372 ft | 424 kts | 143° |
| 2026-05-01 09:42 | 44.08329 | 26.78651 | 21440 ft | 431 kts | 140° |
| 2026-05-01 09:43 | 44.03561 | 26.83800 | 22399 ft | 438 kts | 147° |
| 2026-05-01 09:43 | 44.00940 | 26.86005 | 22864 ft | 442 kts | 149° |
| 2026-05-01 09:43 | 43.98287 | 26.88191 | 23320 ft | 445 kts | 148° |
| 2026-05-01 09:44 | 43.93077 | 26.92948 | 24149 ft | 451 kts | 144° |
| 2026-05-01 09:44 | 43.90540 | 26.95534 | 24515 ft | 454 kts | 142° |
| 2026-05-01 09:44 | 43.88026 | 26.98195 | 24874 ft | 456 kts | 142° |
| 2026-05-01 09:45 | 43.85505 | 27.00895 | 25233 ft | 459 kts | 142° |
| 2026-05-01 09:45 | 43.80393 | 27.06281 | 25952 ft | 464 kts | 143° |
| 2026-05-01 09:45 | 43.77794 | 27.08957 | 26321 ft | 466 kts | 144° |
| 2026-05-01 09:46 | 43.75177 | 27.11623 | 26678 ft | 469 kts | 144° |
| 2026-05-01 09:46 | 43.72538 | 27.14300 | 27026 ft | 471 kts | 144° |
| 2026-05-01 09:46 | 43.69890 | 27.16986 | 27371 ft | 473 kts | 144° |
| 2026-05-01 09:46 | 43.67230 | 27.19688 | 27709 ft | 476 kts | 144° |
| 2026-05-01 09:47 | 43.64603 | 27.22362 | 28661 ft | 464 kts | 144° |
| 2026-05-01 09:47 | 43.62006 | 27.25007 | 29096 ft | 466 kts | 144° |
| 2026-05-01 09:47 | 43.59378 | 27.27680 | 29271 ft | 473 kts | 144° |
| 2026-05-01 09:47 | 43.56717 | 27.30381 | 29286 ft | 477 kts | 144° |
| 2026-05-01 09:48 | 43.51357 | 27.35815 | 29285 ft | 482 kts | 145° |
| 2026-05-01 09:48 | 43.45865 | 27.41375 | 29284 ft | 493 kts | 145° |
| 2026-05-01 09:49 | 43.40332 | 27.46961 | 29277 ft | 493 kts | 145° |
| 2026-05-01 09:49 | 43.34829 | 27.52515 | 29281 ft | 493 kts | 145° |
| 2026-05-01 09:50 | 43.29297 | 27.58077 | 29278 ft | 492 kts | 146° |
| 2026-05-01 09:50 | 43.23760 | 27.63618 | 29272 ft | 492 kts | 146° |
| 2026-05-01 09:51 | 43.20990 | 27.66392 | 29480 ft | 492 kts | 146° |
| 2026-05-01 09:51 | 43.18230 | 27.69154 | 29779 ft | 491 kts | 146° |
| 2026-05-01 09:51 | 43.15471 | 27.71908 | 30064 ft | 490 kts | 146° |
| 2026-05-01 09:51 | 43.12715 | 27.74652 | 30336 ft | 489 kts | 147° |
| 2026-05-01 09:52 | 43.09968 | 27.77384 | 30579 ft | 488 kts | 147° |
| 2026-05-01 09:52 | 43.07238 | 27.80101 | 31087 ft | 481 kts | 147° |
| 2026-05-01 09:52 | 43.04542 | 27.82783 | 31249 ft | 480 kts | 147° |
| 2026-05-01 09:52 | 43.01824 | 27.85482 | 31273 ft | 484 kts | 147° |
| 2026-05-01 09:53 | 42.96360 | 27.90898 | 31275 ft | 486 kts | 147° |
| 2026-05-01 09:53 | 42.90882 | 27.96309 | 31274 ft | 486 kts | 147° |
| 2026-05-01 09:54 | 42.85403 | 28.01713 | 31273 ft | 486 kts | 147° |
| 2026-05-01 09:54 | 42.79924 | 28.07108 | 31269 ft | 486 kts | 147° |
| 2026-05-01 09:55 | 42.74443 | 28.12489 | 31267 ft | 486 kts | 147° |
| 2026-05-01 09:55 | 42.68965 | 28.17857 | 31271 ft | 485 kts | 147° |
| 2026-05-01 09:56 | 42.63486 | 28.23219 | 31271 ft | 485 kts | 148° |
| 2026-05-01 09:56 | 42.58014 | 28.28562 | 31272 ft | 484 kts | 148° |
| 2026-05-01 09:57 | 42.52553 | 28.33877 | 31275 ft | 483 kts | 148° |
| 2026-05-01 09:57 | 42.47098 | 28.39175 | 31277 ft | 482 kts | 148° |
| 2026-05-01 09:58 | 42.41715 | 28.44394 | 31249 ft | 468 kts | 148° |
| 2026-05-01 09:58 | 42.36454 | 28.49481 | 31067 ft | 463 kts | 149° |
| 2026-05-01 09:59 | 42.33834 | 28.52013 | 30765 ft | 462 kts | 149° |
| 2026-05-01 09:59 | 42.31211 | 28.54543 | 29569 ft | 466 kts | 149° |
| 2026-05-01 09:59 | 42.28557 | 28.57095 | 28269 ft | 471 kts | 149° |
| 2026-05-01 09:59 | 42.25890 | 28.59662 | 27054 ft | 472 kts | 149° |
| 2026-05-01 10:00 | 42.23205 | 28.62244 | 25759 ft | 475 kts | 149° |
| 2026-05-01 10:00 | 42.20506 | 28.64837 | 24520 ft | 477 kts | 149° |
| 2026-05-01 10:00 | 42.17802 | 28.67434 | 23523 ft | 475 kts | 149° |
| 2026-05-01 10:00 | 42.15170 | 28.69966 | 23278 ft | 454 kts | 149° |
| 2026-05-01 10:01 | 42.12657 | 28.72386 | 23127 ft | 434 kts | 149° |
| 2026-05-01 10:01 | 42.10181 | 28.74536 | 22988 ft | 412 kts | 158° |
| 2026-05-01 10:01 | 42.07594 | 28.75952 | 22780 ft | 393 kts | 169° |
| 2026-05-01 10:01 | 42.04972 | 28.76671 | 22510 ft | 378 kts | 179° |
| 2026-05-01 10:02 | 42.02370 | 28.76833 | 22236 ft | 373 kts | 184° |
| 2026-05-01 10:02 | 41.99785 | 28.76930 | 21966 ft | 372 kts | 183° |
| 2026-05-01 10:02 | 41.97202 | 28.77034 | 21705 ft | 371 kts | 183° |
| 2026-05-01 10:02 | 41.94627 | 28.77141 | 21434 ft | 370 kts | 183° |
| 2026-05-01 10:03 | 41.92054 | 28.77247 | 21172 ft | 369 kts | 183° |
| 2026-05-01 10:03 | 41.89489 | 28.77352 | 20913 ft | 368 kts | 183° |
| 2026-05-01 10:03 | 41.86934 | 28.77454 | 20608 ft | 367 kts | 183° |
| 2026-05-01 10:03 | 41.84380 | 28.77551 | 20353 ft | 366 kts | 183° |
| 2026-05-01 10:04 | 41.81885 | 28.77647 | 20102 ft | 358 kts | 183° |
| 2026-05-01 10:04 | 41.79437 | 28.77592 | 19848 ft | 344 kts | 192° |
| 2026-05-01 10:04 | 41.77186 | 28.76778 | 19590 ft | 328 kts | 208° |
| 2026-05-01 10:04 | 41.75261 | 28.75265 | 19351 ft | 315 kts | 222° |
| 2026-05-01 10:05 | 41.73740 | 28.73230 | 19106 ft | 305 kts | 235° |
| 2026-05-01 10:05 | 41.72496 | 28.70948 | 18867 ft | 303 kts | 236° |
| 2026-05-01 10:05 | 41.71255 | 28.68669 | 18633 ft | 303 kts | 236° |
| 2026-05-01 10:05 | 41.70014 | 28.66397 | 18373 ft | 302 kts | 237° |
| 2026-05-01 10:06 | 41.68777 | 28.64135 | 18098 ft | 301 kts | 236° |
| 2026-05-01 10:06 | 41.67546 | 28.61879 | 17819 ft | 300 kts | 236° |
| 2026-05-01 10:06 | 41.66317 | 28.59629 | 17549 ft | 299 kts | 236° |
| 2026-05-01 10:06 | 41.65089 | 28.57384 | 17282 ft | 298 kts | 236° |
| 2026-05-01 10:07 | 41.63866 | 28.55151 | 17015 ft | 297 kts | 236° |
| 2026-05-01 10:07 | 41.62647 | 28.52926 | 16750 ft | 296 kts | 236° |
| 2026-05-01 10:07 | 41.61431 | 28.50708 | 16483 ft | 295 kts | 236° |
| 2026-05-01 10:07 | 41.60219 | 28.48498 | 16225 ft | 295 kts | 236° |
| 2026-05-01 10:08 | 41.57804 | 28.44097 | 15715 ft | 293 kts | 236° |
| 2026-05-01 10:08 | 41.56387 | 28.42141 | 15454 ft | 296 kts | 218° |
| 2026-05-01 10:08 | 41.54492 | 28.41028 | 15202 ft | 303 kts | 195° |
| 2026-05-01 10:09 | 41.52373 | 28.40817 | 14955 ft | 307 kts | 186° |
| 2026-05-01 10:09 | 41.50239 | 28.40734 | 14707 ft | 306 kts | 186° |
| 2026-05-01 10:09 | 41.48113 | 28.40657 | 14383 ft | 305 kts | 186° |
| 2026-05-01 10:09 | 41.46576 | 28.40602 | 14125 ft | 304 kts | 185° |
| 2026-05-01 10:10 | 41.45150 | 28.40551 | 13870 ft | 303 kts | 185° |
| 2026-05-01 10:10 | 41.43043 | 28.40471 | 13472 ft | 302 kts | 185° |
| 2026-05-01 10:10 | 41.38850 | 28.40308 | 12714 ft | 300 kts | 185° |
| 2026-05-01 10:11 | 41.36768 | 28.40224 | 12331 ft | 299 kts | 185° |
| 2026-05-01 10:11 | 41.34696 | 28.40139 | 11978 ft | 297 kts | 185° |
| 2026-05-01 10:11 | 41.32684 | 28.40058 | 11828 ft | 288 kts | 185° |
| 2026-05-01 10:11 | 41.30684 | 28.39980 | 11700 ft | 279 kts | 185° |
| 2026-05-01 10:12 | 41.28798 | 28.39906 | 11566 ft | 271 kts | 185° |
| 2026-05-01 10:12 | 41.26937 | 28.39832 | 11376 ft | 265 kts | 185° |
| 2026-05-01 10:12 | 41.23270 | 28.39684 | 10842 ft | 262 kts | 184° |
| 2026-05-01 10:13 | 41.21456 | 28.39610 | 10638 ft | 259 kts | 184° |
| 2026-05-01 10:13 | 41.19681 | 28.39542 | 10506 ft | 252 kts | 184° |
| 2026-05-01 10:13 | 41.17942 | 28.39476 | 10385 ft | 248 kts | 184° |
| 2026-05-01 10:14 | 41.14560 | 28.39340 | 10129 ft | 237 kts | 184° |
| 2026-05-01 10:14 | 41.12938 | 28.39273 | 9994 ft | 229 kts | 184° |
| 2026-05-01 10:14 | 41.11381 | 28.39422 | 9894 ft | 221 kts | 166° |
| 2026-05-01 10:14 | 41.10060 | 28.40362 | 9682 ft | 215 kts | 138° |
| 2026-05-01 10:15 | 41.09215 | 28.41964 | 9378 ft | 212 kts | 110° |
| 2026-05-01 10:15 | 41.08998 | 28.43856 | 9061 ft | 206 kts | 82° |
| 2026-05-01 10:15 | 41.09238 | 28.45717 | 8720 ft | 203 kts | 77° |
| 2026-05-01 10:15 | 41.09487 | 28.47534 | 8286 ft | 199 kts | 77° |
| 2026-05-01 10:16 | 41.09732 | 28.49328 | 7858 ft | 196 kts | 76° |
| 2026-05-01 10:16 | 41.09968 | 28.51082 | 7453 ft | 191 kts | 76° |
| 2026-05-01 10:16 | 41.10426 | 28.54472 | 6562 ft | 182 kts | 75° |
| 2026-05-01 10:17 | 41.10648 | 28.56118 | 5999 ft | 180 kts | 75° |
| 2026-05-01 10:17 | 41.11081 | 28.59351 | 4969 ft | 177 kts | 75° |
| 2026-05-01 10:17 | 41.11295 | 28.60947 | 4525 ft | 175 kts | 75° |
| 2026-05-01 10:18 | 41.11710 | 28.64045 | 3625 ft | 168 kts | 75° |
| 2026-05-01 10:18 | 41.11913 | 28.65559 | 3084 ft | 165 kts | 75° |
| 2026-05-01 10:18 | 41.12112 | 28.67049 | 3010 ft | 164 kts | 75° |
| 2026-05-01 10:19 | 41.12348 | 28.68510 | 3019 ft | 160 kts | 66° |
| 2026-05-01 10:19 | 41.12904 | 28.69746 | 2971 ft | 154 kts | 46° |
| 2026-05-01 10:19 | 41.13744 | 28.70597 | 2881 ft | 153 kts | 27° |
| 2026-05-01 10:20 | 41.15845 | 28.70954 | 2537 ft | 156 kts | 3° |
| 2026-05-01 10:20 | 41.16932 | 28.70932 | 2322 ft | 156 kts | 4° |
| 2026-05-01 10:20 | 41.18006 | 28.70910 | 2115 ft | 156 kts | 3° |
| 2026-05-01 10:20 | 41.19089 | 28.70888 | 1904 ft | 155 kts | 4° |
| 2026-05-01 10:21 | 41.20157 | 28.70866 | 1697 ft | 152 kts | 3° |
| 2026-05-01 10:21 | 41.22256 | 28.70825 | 1261 ft | 151 kts | 2° |
| 2026-05-01 10:21 | 41.23265 | 28.70803 | 1035 ft | 133 kts | 2° |
| 2026-05-01 10:22 | 41.24995 | 28.70769 | 689 ft | 121 kts | 4° |
| 2026-05-01 10:22 | 41.26668 | 28.70728 | 355 ft | 118 kts | 2° |
| 2026-05-01 10:23 | 41.27382 | 28.70720 | 334 ft | 82 kts | 359° |
| 2026-05-01 10:23 | 41.27671 | 28.70716 | 332 ft | 0 kts | 359° |
| 2026-05-01 10:23 | 41.27690 | 28.70715 | 330 ft | 16 kts | 359° |
| 2026-05-01 10:24 | 41.28031 | 28.70708 | 330 ft | 27 kts | 357° |
| 2026-05-01 10:24 | 41.28386 | 28.70816 | 332 ft | 15 kts | 26° |
| 2026-05-01 10:25 | 41.28424 | 28.70851 | 329 ft | 0 kts | 28° |
| 2026-05-01 10:26 | 41.28435 | 28.70859 | 332 ft | 4 kts | 28° |
| 2026-05-01 10:26 | 41.28474 | 28.70887 | 334 ft | 8 kts | 31° |
| 2026-05-01 10:26 | 41.28504 | 28.71036 | 333 ft | 0 kts | 90° |
| 2026-05-01 10:27 | 41.28504 | 28.71040 | 331 ft | 0 kts | 90° |
| 2026-05-01 10:28 | 41.28505 | 28.71068 | 333 ft | 5 kts | 86° |
| 2026-05-01 10:28 | 41.28446 | 28.71170 | 332 ft | 12 kts | 180° |
| 2026-05-01 10:28 | 41.28353 | 28.71172 | 332 ft | 15 kts | 179° |
| 2026-05-01 10:29 | 41.28098 | 28.71178 | 333 ft | 21 kts | 179° |
| 2026-05-01 10:29 | 41.27940 | 28.71182 | 332 ft | 24 kts | 179° |
| 2026-05-01 10:30 | 41.27554 | 28.71193 | 334 ft | 31 kts | 179° |
| 2026-05-01 10:30 | 41.27131 | 28.71202 | 330 ft | 31 kts | 179° |
| 2026-05-01 10:31 | 41.26773 | 28.71211 | 333 ft | 13 kts | 179° |
| 2026-05-01 10:31 | 41.26754 | 28.71211 | 331 ft | 2 kts | 179° |
| 2026-05-01 10:32 | 41.26695 | 28.71287 | 333 ft | 11 kts | 94° |
| 2026-05-01 10:32 | 41.26694 | 28.71403 | 332 ft | 14 kts | 86° |
| 2026-05-01 10:32 | 41.26702 | 28.71726 | 331 ft | 21 kts | 87° |
| 2026-05-01 10:33 | 41.26707 | 28.72159 | 334 ft | 26 kts | 89° |
| 2026-05-01 10:33 | 41.26708 | 28.72331 | 334 ft | 0 kts | 89° |
| 2026-05-01 10:34 | 41.26708 | 28.72333 | 334 ft | 1 kts | 89° |
| 2026-05-01 10:34 | 41.26709 | 28.72370 | 334 ft | 7 kts | 89° |
| 2026-05-01 10:34 | 41.26710 | 28.72460 | 334 ft | 12 kts | 89° |
| 2026-05-01 10:35 | 41.26713 | 28.72745 | 332 ft | 18 kts | 89° |
| 2026-05-01 10:35 | 41.26716 | 28.72877 | 334 ft | 8 kts | 89° |
| 2026-05-01 10:35 | 41.26716 | 28.72898 | 334 ft | 0 kts | 89° |
| 2026-05-01 10:36 | 41.26716 | 28.72900 | 334 ft | 2 kts | 89° |
| 2026-05-01 10:36 | 41.26716 | 28.72940 | 334 ft | 7 kts | 90° |
| 2026-05-01 10:36 | 41.26684 | 28.72993 | 333 ft | 10 kts | 171° |
| 2026-05-01 10:37 | 41.26602 | 28.72996 | 333 ft | 13 kts | 179° |
| 2026-05-01 10:37 | 41.26374 | 28.73000 | 333 ft | 20 kts | 178° |
| 2026-05-01 10:37 | 41.26255 | 28.73005 | 332 ft | 13 kts | 178° |
| 2026-05-01 10:38 | 41.26241 | 28.73008 | 332 ft | 3 kts | 163° |
| 2026-05-01 10:38 | 41.26218 | 28.73054 | 331 ft | 8 kts | 98° |
| 2026-05-01 10:38 | 41.26219 | 28.73146 | 331 ft | 12 kts | 89° |
| 2026-05-01 10:38 | 41.26220 | 28.73273 | 332 ft | 16 kts | 89° |
| 2026-05-01 10:39 | 41.26223 | 28.73432 | 330 ft | 18 kts | 88° |
| 2026-05-01 10:39 | 41.26145 | 28.73511 | 334 ft | 18 kts | 197° |
| 2026-05-01 10:39 | 41.26038 | 28.73480 | 331 ft | 11 kts | 150° |
| 2026-05-01 10:39 | 41.26015 | 28.73558 | 332 ft | 4 kts | 108° |
| 2026-05-01 10:40 | 41.26013 | 28.73565 | 333 ft | 0 kts | 108° |